sensor_id;sensor_type;location;lat;lon;timestamp;temperature;humidity
65207;SHT31;58477;48.072;11.970;2022-08-21T00:00:39;15.89;95.56
65207;SHT31;58477;48.072;11.970;2022-08-21T00:03:08;15.79;95.70
65207;SHT31;58477;48.072;11.970;2022-08-21T00:05:38;15.81;95.87
65207;SHT31;58477;48.072;11.970;2022-08-21T00:08:04;15.77;95.92
65207;SHT31;58477;48.072;11.970;2022-08-21T00:10:30;15.82;95.62
65207;SHT31;58477;48.072;11.970;2022-08-21T00:12:56;15.85;95.76
65207;SHT31;58477;48.072;11.970;2022-08-21T00:15:24;15.89;95.27
65207;SHT31;58477;48.072;11.970;2022-08-21T00:17:52;15.78;95.56
65207;SHT31;58477;48.072;11.970;2022-08-21T00:20:18;15.78;95.83
65207;SHT31;58477;48.072;11.970;2022-08-21T00:22:44;15.82;95.34
65207;SHT31;58477;48.072;11.970;2022-08-21T00:25:10;15.79;95.59
65207;SHT31;58477;48.072;11.970;2022-08-21T00:27:36;15.82;95.44
65207;SHT31;58477;48.072;11.970;2022-08-21T00:30:03;15.81;95.51
65207;SHT31;58477;48.072;11.970;2022-08-21T00:32:29;15.75;95.71
65207;SHT31;58477;48.072;11.970;2022-08-21T00:34:55;15.84;95.56
65207;SHT31;58477;48.072;11.970;2022-08-21T00:37:20;15.87;95.37
65207;SHT31;58477;48.072;11.970;2022-08-21T00:39:46;15.95;94.99
65207;SHT31;58477;48.072;11.970;2022-08-21T00:42:13;15.95;95.10
65207;SHT31;58477;48.072;11.970;2022-08-21T00:44:46;15.91;95.38
65207;SHT31;58477;48.072;11.970;2022-08-21T00:47:11;15.89;95.29
65207;SHT31;58477;48.072;11.970;2022-08-21T00:49:38;15.87;94.99
65207;SHT31;58477;48.072;11.970;2022-08-21T00:52:06;15.94;95.02
65207;SHT31;58477;48.072;11.970;2022-08-21T00:54:32;15.79;95.28
65207;SHT31;58477;48.072;11.970;2022-08-21T00:57:01;15.78;95.44
65207;SHT31;58477;48.072;11.970;2022-08-21T00:59:28;15.75;95.38
65207;SHT31;58477;48.072;11.970;2022-08-21T01:01:55;15.78;95.11
65207;SHT31;58477;48.072;11.970;2022-08-21T01:04:22;15.77;95.07
65207;SHT31;58477;48.072;11.970;2022-08-21T01:06:47;15.69;95.02
65207;SHT31;58477;48.072;11.970;2022-08-21T01:09:16;15.62;95.27
65207;SHT31;58477;48.072;11.970;2022-08-21T01:11:43;15.61;95.19
65207;SHT31;58477;48.072;11.970;2022-08-21T01:14:09;15.55;95.35
65207;SHT31;58477;48.072;11.970;2022-08-21T01:16:38;15.57;95.09
65207;SHT31;58477;48.072;11.970;2022-08-21T01:19:05;15.48;95.31
65207;SHT31;58477;48.072;11.970;2022-08-21T01:21:31;15.50;95.35
65207;SHT31;58477;48.072;11.970;2022-08-21T01:23:57;15.43;95.62
65207;SHT31;58477;48.072;11.970;2022-08-21T01:26:27;15.45;95.29
65207;SHT31;58477;48.072;11.970;2022-08-21T01:31:28;15.47;95.28
65207;SHT31;58477;48.072;11.970;2022-08-21T01:33:54;15.51;95.38
65207;SHT31;58477;48.072;11.970;2022-08-21T01:36:21;15.57;94.89
65207;SHT31;58477;48.072;11.970;2022-08-21T01:38:47;15.53;95.04
65207;SHT31;58477;48.072;11.970;2022-08-21T01:41:13;15.67;94.05
65207;SHT31;58477;48.072;11.970;2022-08-21T01:43:40;15.62;94.43
65207;SHT31;58477;48.072;11.970;2022-08-21T01:46:06;15.54;94.72
65207;SHT31;58477;48.072;11.970;2022-08-21T01:48:31;15.57;94.56
65207;SHT31;58477;48.072;11.970;2022-08-21T01:50:57;15.64;94.19
65207;SHT31;58477;48.072;11.970;2022-08-21T01:53:22;15.57;94.33
65207;SHT31;58477;48.072;11.970;2022-08-21T01:55:48;15.65;94.19
65207;SHT31;58477;48.072;11.970;2022-08-21T01:58:13;15.54;94.26
65207;SHT31;58477;48.072;11.970;2022-08-21T02:00:38;15.58;94.07
65207;SHT31;58477;48.072;11.970;2022-08-21T02:03:04;15.51;94.51
65207;SHT31;58477;48.072;11.970;2022-08-21T02:05:29;15.47;94.55
65207;SHT31;58477;48.072;11.970;2022-08-21T02:07:56;15.51;93.94
65207;SHT31;58477;48.072;11.970;2022-08-21T02:10:25;15.55;93.70
65207;SHT31;58477;48.072;11.970;2022-08-21T02:12:52;15.54;93.54
65207;SHT31;58477;48.072;11.970;2022-08-21T02:15:18;15.45;93.62
65207;SHT31;58477;48.072;11.970;2022-08-21T02:17:47;15.44;93.84
65207;SHT31;58477;48.072;11.970;2022-08-21T02:20:18;15.38;94.14
65207;SHT31;58477;48.072;11.970;2022-08-21T02:22:44;15.35;93.93
65207;SHT31;58477;48.072;11.970;2022-08-21T02:25:09;15.27;94.02
65207;SHT31;58477;48.072;11.970;2022-08-21T02:27:40;15.28;93.71
65207;SHT31;58477;48.072;11.970;2022-08-21T02:30:07;15.24;93.92
65207;SHT31;58477;48.072;11.970;2022-08-21T02:32:32;15.21;93.90
65207;SHT31;58477;48.072;11.970;2022-08-21T02:34:58;15.16;94.08
65207;SHT31;58477;48.072;11.970;2022-08-21T02:37:24;15.17;93.99
65207;SHT31;58477;48.072;11.970;2022-08-21T02:39:49;15.10;94.17
65207;SHT31;58477;48.072;11.970;2022-08-21T02:42:15;15.08;94.33
65207;SHT31;58477;48.072;11.970;2022-08-21T02:44:41;15.11;93.89
65207;SHT31;58477;48.072;11.970;2022-08-21T02:47:06;15.07;94.25
65207;SHT31;58477;48.072;11.970;2022-08-21T02:49:32;15.13;93.83
65207;SHT31;58477;48.072;11.970;2022-08-21T02:51:57;15.04;94.18
65207;SHT31;58477;48.072;11.970;2022-08-21T02:54:23;15.06;94.07
65207;SHT31;58477;48.072;11.970;2022-08-21T02:56:48;15.07;93.94
65207;SHT31;58477;48.072;11.970;2022-08-21T02:59:15;15.04;94.02
65207;SHT31;58477;48.072;11.970;2022-08-21T03:01:41;14.99;94.04
65207;SHT31;58477;48.072;11.970;2022-08-21T03:04:06;14.91;94.31
65207;SHT31;58477;48.072;11.970;2022-08-21T03:06:32;14.89;94.36
65207;SHT31;58477;48.072;11.970;2022-08-21T03:08:58;14.87;94.06
65207;SHT31;58477;48.072;11.970;2022-08-21T03:11:24;14.86;94.27
65207;SHT31;58477;48.072;11.970;2022-08-21T03:13:51;14.80;94.39
65207;SHT31;58477;48.072;11.970;2022-08-21T03:16:17;14.69;94.42
65207;SHT31;58477;48.072;11.970;2022-08-21T03:18:43;14.60;94.83
65207;SHT31;58477;48.072;11.970;2022-08-21T03:21:09;14.66;94.34
65207;SHT31;58477;48.072;11.970;2022-08-21T03:23:35;14.68;94.50
65207;SHT31;58477;48.072;11.970;2022-08-21T03:26:00;14.60;94.62
65207;SHT31;58477;48.072;11.970;2022-08-21T03:28:26;14.59;94.62
65207;SHT31;58477;48.072;11.970;2022-08-21T03:30:52;14.58;94.28
65207;SHT31;58477;48.072;11.970;2022-08-21T03:33:17;14.63;94.30
65207;SHT31;58477;48.072;11.970;2022-08-21T03:35:45;14.60;94.32
65207;SHT31;58477;48.072;11.970;2022-08-21T03:38:12;14.55;94.49
65207;SHT31;58477;48.072;11.970;2022-08-21T03:40:42;14.49;94.61
65207;SHT31;58477;48.072;11.970;2022-08-21T03:43:08;14.33;94.84
65207;SHT31;58477;48.072;11.970;2022-08-21T03:45:34;14.33;94.92
65207;SHT31;58477;48.072;11.970;2022-08-21T03:48:02;14.38;94.84
65207;SHT31;58477;48.072;11.970;2022-08-21T03:50:33;14.35;94.84
65207;SHT31;58477;48.072;11.970;2022-08-21T03:53:00;14.32;94.77
65207;SHT31;58477;48.072;11.970;2022-08-21T03:55:26;14.18;94.73
65207;SHT31;58477;48.072;11.970;2022-08-21T03:57:52;14.15;94.87
65207;SHT31;58477;48.072;11.970;2022-08-21T04:00:19;14.06;95.34
65207;SHT31;58477;48.072;11.970;2022-08-21T04:02:46;14.02;95.39
65207;SHT31;58477;48.072;11.970;2022-08-21T04:05:13;14.09;94.95
65207;SHT31;58477;48.072;11.970;2022-08-21T04:07:39;14.09;95.15
65207;SHT31;58477;48.072;11.970;2022-08-21T04:10:06;13.94;95.13
65207;SHT31;58477;48.072;11.970;2022-08-21T04:12:32;14.05;95.50
65207;SHT31;58477;48.072;11.970;2022-08-21T04:14:57;14.05;94.87
65207;SHT31;58477;48.072;11.970;2022-08-21T04:17:23;13.97;95.12
65207;SHT31;58477;48.072;11.970;2022-08-21T04:19:48;13.95;95.11
65207;SHT31;58477;48.072;11.970;2022-08-21T04:22:15;13.92;95.32
65207;SHT31;58477;48.072;11.970;2022-08-21T04:24:40;14.01;94.93
65207;SHT31;58477;48.072;11.970;2022-08-21T04:27:06;13.91;94.43
65207;SHT31;58477;48.072;11.970;2022-08-21T04:29:31;14.02;94.92
65207;SHT31;58477;48.072;11.970;2022-08-21T04:31:57;13.97;94.75
65207;SHT31;58477;48.072;11.970;2022-08-21T04:34:22;13.98;94.60
65207;SHT31;58477;48.072;11.970;2022-08-21T04:36:48;14.04;94.78
65207;SHT31;58477;48.072;11.970;2022-08-21T04:39:13;13.94;94.70
65207;SHT31;58477;48.072;11.970;2022-08-21T04:41:38;13.95;94.96
65207;SHT31;58477;48.072;11.970;2022-08-21T04:44:04;14.09;94.43
65207;SHT31;58477;48.072;11.970;2022-08-21T04:46:30;14.05;94.58
65207;SHT31;58477;48.072;11.970;2022-08-21T04:48:55;13.95;94.59
65207;SHT31;58477;48.072;11.970;2022-08-21T04:51:31;14.01;94.61
65207;SHT31;58477;48.072;11.970;2022-08-21T04:54:12;14.00;94.68
65207;SHT31;58477;48.072;11.970;2022-08-21T04:56:43;13.98;94.84
65207;SHT31;58477;48.072;11.970;2022-08-21T04:59:19;13.98;94.81
65207;SHT31;58477;48.072;11.970;2022-08-21T05:01:46;14.05;94.49
65207;SHT31;58477;48.072;11.970;2022-08-21T05:04:14;14.16;94.25
65207;SHT31;58477;48.072;11.970;2022-08-21T05:06:44;14.16;93.95
65207;SHT31;58477;48.072;11.970;2022-08-21T05:09:14;14.21;93.91
65207;SHT31;58477;48.072;11.970;2022-08-21T05:11:40;14.21;94.23
65207;SHT31;58477;48.072;11.970;2022-08-21T05:14:08;14.32;94.11
65207;SHT31;58477;48.072;11.970;2022-08-21T05:16:34;14.40;93.54
65207;SHT31;58477;48.072;11.970;2022-08-21T05:18:59;14.43;93.26
65207;SHT31;58477;48.072;11.970;2022-08-21T05:21:25;14.46;93.57
65207;SHT31;58477;48.072;11.970;2022-08-21T05:23:50;14.50;93.34
65207;SHT31;58477;48.072;11.970;2022-08-21T05:26:15;15.68;90.58
65207;SHT31;58477;48.072;11.970;2022-08-21T05:28:41;17.02;86.50
65207;SHT31;58477;48.072;11.970;2022-08-21T05:31:06;17.96;83.23
65207;SHT31;58477;48.072;11.970;2022-08-21T05:33:32;18.43;80.98
65207;SHT31;58477;48.072;11.970;2022-08-21T05:35:57;18.90;79.63
65207;SHT31;58477;48.072;11.970;2022-08-21T05:38:24;19.45;77.52
65207;SHT31;58477;48.072;11.970;2022-08-21T05:40:50;19.73;76.89
65207;SHT31;58477;48.072;11.970;2022-08-21T05:43:16;19.87;76.27
65207;SHT31;58477;48.072;11.970;2022-08-21T05:45:42;19.89;76.81
65207;SHT31;58477;48.072;11.970;2022-08-21T05:48:08;20.19;76.76
65207;SHT31;58477;48.072;11.970;2022-08-21T05:50:35;20.46;75.66
65207;SHT31;58477;48.072;11.970;2022-08-21T05:53:02;20.46;74.39
65207;SHT31;58477;48.072;11.970;2022-08-21T05:55:28;20.61;74.42
65207;SHT31;58477;48.072;11.970;2022-08-21T05:57:53;20.68;74.48
65207;SHT31;58477;48.072;11.970;2022-08-21T06:00:19;20.85;74.01
65207;SHT31;58477;48.072;11.970;2022-08-21T06:02:45;20.76;74.29
65207;SHT31;58477;48.072;11.970;2022-08-21T06:05:10;20.54;74.11
65207;SHT31;58477;48.072;11.970;2022-08-21T06:07:35;20.54;74.93
65207;SHT31;58477;48.072;11.970;2022-08-21T06:10:01;20.80;73.79
65207;SHT31;58477;48.072;11.970;2022-08-21T06:12:27;20.76;73.90
65207;SHT31;58477;48.072;11.970;2022-08-21T06:14:52;20.94;73.68
65207;SHT31;58477;48.072;11.970;2022-08-21T06:17:18;20.97;73.11
65207;SHT31;58477;48.072;11.970;2022-08-21T06:19:44;21.04;72.77
65207;SHT31;58477;48.072;11.970;2022-08-21T06:22:09;21.18;73.15
65207;SHT31;58477;48.072;11.970;2022-08-21T06:24:34;21.31;72.88
65207;SHT31;58477;48.072;11.970;2022-08-21T06:27:05;21.38;72.08
65207;SHT31;58477;48.072;11.970;2022-08-21T06:29:32;21.02;73.18
65207;SHT31;58477;48.072;11.970;2022-08-21T06:31:57;21.11;72.79
65207;SHT31;58477;48.072;11.970;2022-08-21T06:34:23;20.87;73.68
65207;SHT31;58477;48.072;11.970;2022-08-21T06:36:48;20.71;73.45
65207;SHT31;58477;48.072;11.970;2022-08-21T06:39:13;20.61;73.56
65207;SHT31;58477;48.072;11.970;2022-08-21T06:41:39;20.71;73.67
65207;SHT31;58477;48.072;11.970;2022-08-21T06:44:05;20.77;73.12
65207;SHT31;58477;48.072;11.970;2022-08-21T06:46:30;21.42;72.80
65207;SHT31;58477;48.072;11.970;2022-08-21T06:48:57;21.61;71.50
65207;SHT31;58477;48.072;11.970;2022-08-21T06:51:23;21.76;71.17
65207;SHT31;58477;48.072;11.970;2022-08-21T06:53:51;21.45;71.12
65207;SHT31;58477;48.072;11.970;2022-08-21T06:56:16;21.75;70.84
65207;SHT31;58477;48.072;11.970;2022-08-21T06:58:42;21.74;71.23
65207;SHT31;58477;48.072;11.970;2022-08-21T07:01:07;21.41;71.34
65207;SHT31;58477;48.072;11.970;2022-08-21T07:03:35;21.85;71.71
65207;SHT31;58477;48.072;11.970;2022-08-21T07:06:02;22.35;69.74
65207;SHT31;58477;48.072;11.970;2022-08-21T07:08:28;22.50;69.64
65207;SHT31;58477;48.072;11.970;2022-08-21T07:10:56;22.74;68.19
65207;SHT31;58477;48.072;11.970;2022-08-21T07:13:22;23.31;68.17
65207;SHT31;58477;48.072;11.970;2022-08-21T07:15:47;23.38;66.96
65207;SHT31;58477;48.072;11.970;2022-08-21T07:18:13;23.56;67.11
65207;SHT31;58477;48.072;11.970;2022-08-21T07:20:39;23.56;66.37
65207;SHT31;58477;48.072;11.970;2022-08-21T07:23:08;23.11;67.25
65207;SHT31;58477;48.072;11.970;2022-08-21T07:25:34;23.35;66.73
65207;SHT31;58477;48.072;11.970;2022-08-21T07:28:00;23.21;66.47
65207;SHT31;58477;48.072;11.970;2022-08-21T07:30:26;24.05;65.58
65207;SHT31;58477;48.072;11.970;2022-08-21T07:32:52;24.24;64.61
65207;SHT31;58477;48.072;11.970;2022-08-21T07:35:19;23.29;65.27
65207;SHT31;58477;48.072;11.970;2022-08-21T07:37:45;23.37;64.17
65207;SHT31;58477;48.072;11.970;2022-08-21T07:40:11;24.26;64.78
65207;SHT31;58477;48.072;11.970;2022-08-21T07:42:45;24.29;64.01
65207;SHT31;58477;48.072;11.970;2022-08-21T07:45:12;23.78;65.72
65207;SHT31;58477;48.072;11.970;2022-08-21T07:47:38;24.39;65.02
65207;SHT31;58477;48.072;11.970;2022-08-21T07:50:04;24.10;62.71
65207;SHT31;58477;48.072;11.970;2022-08-21T07:52:30;24.71;62.28
65207;SHT31;58477;48.072;11.970;2022-08-21T07:54:56;24.41;63.72
65207;SHT31;58477;48.072;11.970;2022-08-21T07:57:21;25.86;60.43
65207;SHT31;58477;48.072;11.970;2022-08-21T07:59:47;25.61;60.42
65207;SHT31;58477;48.072;11.970;2022-08-21T08:02:27;24.75;61.21
65207;SHT31;58477;48.072;11.970;2022-08-21T08:04:54;25.08;62.77
65207;SHT31;58477;48.072;11.970;2022-08-21T08:07:19;25.48;61.56
65207;SHT31;58477;48.072;11.970;2022-08-21T08:09:45;25.42;60.90
65207;SHT31;58477;48.072;11.970;2022-08-21T08:12:11;25.66;61.14
65207;SHT31;58477;48.072;11.970;2022-08-21T08:14:36;25.65;60.21
65207;SHT31;58477;48.072;11.970;2022-08-21T08:17:02;25.50;60.50
65207;SHT31;58477;48.072;11.970;2022-08-21T08:19:28;26.27;57.91
65207;SHT31;58477;48.072;11.970;2022-08-21T08:21:54;26.37;58.31
65207;SHT31;58477;48.072;11.970;2022-08-21T08:24:19;26.14;58.33
65207;SHT31;58477;48.072;11.970;2022-08-21T08:26:45;26.30;57.69
65207;SHT31;58477;48.072;11.970;2022-08-21T08:29:10;25.41;60.29
65207;SHT31;58477;48.072;11.970;2022-08-21T08:31:36;25.76;61.04
65207;SHT31;58477;48.072;11.970;2022-08-21T08:34:01;26.47;58.12
65207;SHT31;58477;48.072;11.970;2022-08-21T08:36:36;26.57;57.29
65207;SHT31;58477;48.072;11.970;2022-08-21T08:39:03;26.53;56.31
65207;SHT31;58477;48.072;11.970;2022-08-21T08:41:30;26.13;57.31
65207;SHT31;58477;48.072;11.970;2022-08-21T08:44:03;28.47;53.78
65207;SHT31;58477;48.072;11.970;2022-08-21T08:46:42;28.46;52.89
65207;SHT31;58477;48.072;11.970;2022-08-21T08:49:13;28.24;54.10
65207;SHT31;58477;48.072;11.970;2022-08-21T08:51:53;27.04;54.94
65207;SHT31;58477;48.072;11.970;2022-08-21T08:56:59;27.61;54.29
65207;SHT31;58477;48.072;11.970;2022-08-21T08:59:31;27.62;55.56
65207;SHT31;58477;48.072;11.970;2022-08-21T09:01:57;27.28;55.39
65207;SHT31;58477;48.072;11.970;2022-08-21T09:04:25;28.72;51.77
65207;SHT31;58477;48.072;11.970;2022-08-21T09:06:58;28.58;52.60
65207;SHT31;58477;48.072;11.970;2022-08-21T09:09:41;28.70;52.91
65207;SHT31;58477;48.072;11.970;2022-08-21T09:12:19;27.01;54.63
65207;SHT31;58477;48.072;11.970;2022-08-21T09:15:15;27.85;52.81
65207;SHT31;58477;48.072;11.970;2022-08-21T09:26:16;28.65;52.35
65207;SHT31;58477;48.072;11.970;2022-08-21T09:28:43;28.91;49.26
65207;SHT31;58477;48.072;11.970;2022-08-21T09:31:22;28.90;51.59
65207;SHT31;58477;48.072;11.970;2022-08-21T09:33:47;29.32;50.63
65207;SHT31;58477;48.072;11.970;2022-08-21T09:36:25;29.56;49.23
65207;SHT31;58477;48.072;11.970;2022-08-21T09:38:53;29.28;49.02
65207;SHT31;58477;48.072;11.970;2022-08-21T09:41:27;26.60;57.88
65207;SHT31;58477;48.072;11.970;2022-08-21T09:43:53;27.34;56.12
65207;SHT31;58477;48.072;11.970;2022-08-21T09:46:25;28.44;52.40
65207;SHT31;58477;48.072;11.970;2022-08-21T09:48:53;28.82;52.15
65207;SHT31;58477;48.072;11.970;2022-08-21T09:51:29;28.04;52.35
65207;SHT31;58477;48.072;11.970;2022-08-21T09:54:00;28.74;53.01
65207;SHT31;58477;48.072;11.970;2022-08-21T09:59:31;28.78;53.33
65207;SHT31;58477;48.072;11.970;2022-08-21T10:02:01;28.78;51.20
65207;SHT31;58477;48.072;11.970;2022-08-21T10:04:34;29.42;48.41
65207;SHT31;58477;48.072;11.970;2022-08-21T10:07:12;30.77;48.24
65207;SHT31;58477;48.072;11.970;2022-08-21T10:09:39;30.03;47.93
65207;SHT31;58477;48.072;11.970;2022-08-21T10:12:17;29.95;47.39
65207;SHT31;58477;48.072;11.970;2022-08-21T10:17:18;29.28;50.82
65207;SHT31;58477;48.072;11.970;2022-08-21T10:20:05;29.73;50.96
65207;SHT31;58477;48.072;11.970;2022-08-21T10:23:13;29.58;49.78
65207;SHT31;58477;48.072;11.970;2022-08-21T10:25:50;29.23;48.55
65207;SHT31;58477;48.072;11.970;2022-08-21T10:28:27;28.51;52.29
65207;SHT31;58477;48.072;11.970;2022-08-21T10:36:53;30.36;46.76
65207;SHT31;58477;48.072;11.970;2022-08-21T10:39:34;30.82;46.49
65207;SHT31;58477;48.072;11.970;2022-08-21T10:42:06;31.99;44.33
65207;SHT31;58477;48.072;11.970;2022-08-21T10:45:24;32.09;44.47
65207;SHT31;58477;48.072;11.970;2022-08-21T10:50:12;28.94;47.03
65207;SHT31;58477;48.072;11.970;2022-08-21T10:56:05;30.44;46.78
65207;SHT31;58477;48.072;11.970;2022-08-21T10:58:43;31.34;43.52
65207;SHT31;58477;48.072;11.970;2022-08-21T11:01:15;31.55;41.64
65207;SHT31;58477;48.072;11.970;2022-08-21T11:06:50;30.34;43.31
65207;SHT31;58477;48.072;11.970;2022-08-21T11:09:24;30.81;44.86
65207;SHT31;58477;48.072;11.970;2022-08-21T11:12:09;31.82;39.04
65207;SHT31;58477;48.072;11.970;2022-08-21T11:17:27;33.38;39.35
65207;SHT31;58477;48.072;11.970;2022-08-21T11:19:59;33.63;41.51
65207;SHT31;58477;48.072;11.970;2022-08-21T11:22:49;32.95;41.90
65207;SHT31;58477;48.072;11.970;2022-08-21T11:30:37;28.74;46.36
65207;SHT31;58477;48.072;11.970;2022-08-21T11:36:05;26.09;55.92
65207;SHT31;58477;48.072;11.970;2022-08-21T11:38:41;25.52;53.96
65207;SHT31;58477;48.072;11.970;2022-08-21T11:51:33;26.13;57.91
65207;SHT31;58477;48.072;11.970;2022-08-21T11:54:11;25.45;59.25
65207;SHT31;58477;48.072;11.970;2022-08-21T11:56:42;25.18;60.82
65207;SHT31;58477;48.072;11.970;2022-08-21T11:59:37;26.57;56.74
65207;SHT31;58477;48.072;11.970;2022-08-21T12:02:13;28.21;54.86
65207;SHT31;58477;48.072;11.970;2022-08-21T12:04:52;29.26;51.44
65207;SHT31;58477;48.072;11.970;2022-08-21T12:07:59;30.07;48.91
65207;SHT31;58477;48.072;11.970;2022-08-21T12:10:34;30.20;47.17
65207;SHT31;58477;48.072;11.970;2022-08-21T12:13:11;29.77;50.18
65207;SHT31;58477;48.072;11.970;2022-08-21T12:15:46;29.29;45.74
65207;SHT31;58477;48.072;11.970;2022-08-21T12:18:30;30.03;44.65
65207;SHT31;58477;48.072;11.970;2022-08-21T12:21:22;29.82;45.74
65207;SHT31;58477;48.072;11.970;2022-08-21T12:24:02;30.02;43.35
65207;SHT31;58477;48.072;11.970;2022-08-21T12:26:36;27.61;49.17
65207;SHT31;58477;48.072;11.970;2022-08-21T12:29:22;28.92;46.75
65207;SHT31;58477;48.072;11.970;2022-08-21T12:32:23;29.77;44.31
65207;SHT31;58477;48.072;11.970;2022-08-21T12:34:55;30.03;42.32
65207;SHT31;58477;48.072;11.970;2022-08-21T12:39:52;28.82;44.78
65207;SHT31;58477;48.072;11.970;2022-08-21T12:42:33;29.42;44.74
65207;SHT31;58477;48.072;11.970;2022-08-21T12:45:10;29.53;46.87
65207;SHT31;58477;48.072;11.970;2022-08-21T12:47:47;30.14;44.98
65207;SHT31;58477;48.072;11.970;2022-08-21T12:50:20;30.00;47.05
65207;SHT31;58477;48.072;11.970;2022-08-21T12:53:15;29.92;44.51
65207;SHT31;58477;48.072;11.970;2022-08-21T12:55:45;29.23;46.38
65207;SHT31;58477;48.072;11.970;2022-08-21T12:58:18;29.65;47.88
65207;SHT31;58477;48.072;11.970;2022-08-21T13:00:49;28.98;47.64
65207;SHT31;58477;48.072;11.970;2022-08-21T13:03:15;29.52;47.09
65207;SHT31;58477;48.072;11.970;2022-08-21T13:05:41;29.80;45.61
65207;SHT31;58477;48.072;11.970;2022-08-21T13:08:09;29.02;45.72
65207;SHT31;58477;48.072;11.970;2022-08-21T13:10:37;30.12;45.19
65207;SHT31;58477;48.072;11.970;2022-08-21T13:13:06;29.69;42.87
65207;SHT31;58477;48.072;11.970;2022-08-21T13:15:34;30.14;43.29
65207;SHT31;58477;48.072;11.970;2022-08-21T13:18:02;29.49;47.06
65207;SHT31;58477;48.072;11.970;2022-08-21T13:20:33;29.55;47.96
65207;SHT31;58477;48.072;11.970;2022-08-21T13:23:01;28.26;48.06
65207;SHT31;58477;48.072;11.970;2022-08-21T13:25:33;28.84;49.74
65207;SHT31;58477;48.072;11.970;2022-08-21T13:28:08;29.11;46.08
65207;SHT31;58477;48.072;11.970;2022-08-21T13:30:34;29.46;48.37
65207;SHT31;58477;48.072;11.970;2022-08-21T13:33:05;29.05;48.39
65207;SHT31;58477;48.072;11.970;2022-08-21T13:38:28;29.31;47.46
65207;SHT31;58477;48.072;11.970;2022-08-21T13:40:57;27.74;47.70
65207;SHT31;58477;48.072;11.970;2022-08-21T13:43:28;28.44;49.48
65207;SHT31;58477;48.072;11.970;2022-08-21T13:45:56;28.48;47.58
65207;SHT31;58477;48.072;11.970;2022-08-21T13:48:26;28.04;48.33
65207;SHT31;58477;48.072;11.970;2022-08-21T13:50:53;27.01;49.59
65207;SHT31;58477;48.072;11.970;2022-08-21T13:53:28;27.29;52.74
65207;SHT31;58477;48.072;11.970;2022-08-21T13:55:54;27.08;51.28
65207;SHT31;58477;48.072;11.970;2022-08-21T13:58:32;26.57;52.85
65207;SHT31;58477;48.072;11.970;2022-08-21T14:01:00;26.36;52.45
65207;SHT31;58477;48.072;11.970;2022-08-21T14:03:41;26.36;51.67
65207;SHT31;58477;48.072;11.970;2022-08-21T14:06:12;26.97;51.46
65207;SHT31;58477;48.072;11.970;2022-08-21T14:08:40;27.21;49.67
65207;SHT31;58477;48.072;11.970;2022-08-21T14:11:12;26.95;50.27
65207;SHT31;58477;48.072;11.970;2022-08-21T14:13:40;27.45;49.42
65207;SHT31;58477;48.072;11.970;2022-08-21T14:16:27;27.31;51.07
65207;SHT31;58477;48.072;11.970;2022-08-21T14:21:38;27.97;49.69
65207;SHT31;58477;48.072;11.970;2022-08-21T14:24:08;27.11;47.19
65207;SHT31;58477;48.072;11.970;2022-08-21T14:26:36;27.09;49.44
65207;SHT31;58477;48.072;11.970;2022-08-21T14:29:07;27.35;48.55
65207;SHT31;58477;48.072;11.970;2022-08-21T14:31:33;27.83;47.80
65207;SHT31;58477;48.072;11.970;2022-08-21T14:34:00;27.55;49.74
65207;SHT31;58477;48.072;11.970;2022-08-21T14:36:26;26.53;50.86
65207;SHT31;58477;48.072;11.970;2022-08-21T14:38:52;25.76;53.18
65207;SHT31;58477;48.072;11.970;2022-08-21T14:41:21;24.70;55.01
65207;SHT31;58477;48.072;11.970;2022-08-21T14:43:48;24.39;56.28
65207;SHT31;58477;48.072;11.970;2022-08-21T14:46:20;24.61;55.23
65207;SHT31;58477;48.072;11.970;2022-08-21T14:48:46;24.10;56.23
65207;SHT31;58477;48.072;11.970;2022-08-21T14:51:12;24.53;54.41
65207;SHT31;58477;48.072;11.970;2022-08-21T14:53:39;25.24;53.45
65207;SHT31;58477;48.072;11.970;2022-08-21T14:56:04;25.78;54.61
65207;SHT31;58477;48.072;11.970;2022-08-21T14:58:31;26.19;52.40
65207;SHT31;58477;48.072;11.970;2022-08-21T15:00:56;26.54;49.80
65207;SHT31;58477;48.072;11.970;2022-08-21T15:03:24;26.61;50.58
65207;SHT31;58477;48.072;11.970;2022-08-21T15:05:52;26.77;48.80
65207;SHT31;58477;48.072;11.970;2022-08-21T15:08:18;26.86;50.54
65207;SHT31;58477;48.072;11.970;2022-08-21T15:10:43;26.98;51.46
65207;SHT31;58477;48.072;11.970;2022-08-21T15:13:09;26.73;52.34
65207;SHT31;58477;48.072;11.970;2022-08-21T15:15:39;26.41;52.62
65207;SHT31;58477;48.072;11.970;2022-08-21T15:18:05;26.20;51.74
65207;SHT31;58477;48.072;11.970;2022-08-21T15:20:30;26.46;50.37
65207;SHT31;58477;48.072;11.970;2022-08-21T15:22:56;26.47;50.86
65207;SHT31;58477;48.072;11.970;2022-08-21T15:25:21;26.46;51.53
65207;SHT31;58477;48.072;11.970;2022-08-21T15:27:47;26.20;51.88
65207;SHT31;58477;48.072;11.970;2022-08-21T15:30:13;25.89;52.90
65207;SHT31;58477;48.072;11.970;2022-08-21T15:32:39;26.04;53.77
65207;SHT31;58477;48.072;11.970;2022-08-21T15:35:05;26.06;52.69
65207;SHT31;58477;48.072;11.970;2022-08-21T15:37:31;25.18;54.59
65207;SHT31;58477;48.072;11.970;2022-08-21T15:39:57;24.36;57.04
65207;SHT31;58477;48.072;11.970;2022-08-21T15:42:23;24.50;56.56
65207;SHT31;58477;48.072;11.970;2022-08-21T15:44:49;24.71;56.09
65207;SHT31;58477;48.072;11.970;2022-08-21T15:47:18;24.67;55.36
65207;SHT31;58477;48.072;11.970;2022-08-21T15:49:44;24.46;54.78
65207;SHT31;58477;48.072;11.970;2022-08-21T15:52:20;24.00;55.63
65207;SHT31;58477;48.072;11.970;2022-08-21T15:54:46;23.96;57.82
65207;SHT31;58477;48.072;11.970;2022-08-21T15:57:14;23.93;58.39
65207;SHT31;58477;48.072;11.970;2022-08-21T15:59:42;24.21;57.64
65207;SHT31;58477;48.072;11.970;2022-08-21T16:02:15;24.14;59.25
65207;SHT31;58477;48.072;11.970;2022-08-21T16:04:41;24.12;58.20
65207;SHT31;58477;48.072;11.970;2022-08-21T16:07:07;24.05;58.36
65207;SHT31;58477;48.072;11.970;2022-08-21T16:09:32;24.09;57.36
65207;SHT31;58477;48.072;11.970;2022-08-21T16:12:01;24.23;56.69
65207;SHT31;58477;48.072;11.970;2022-08-21T16:14:28;24.49;56.50
65207;SHT31;58477;48.072;11.970;2022-08-21T16:16:54;24.56;56.48
65207;SHT31;58477;48.072;11.970;2022-08-21T16:19:20;24.37;57.30
65207;SHT31;58477;48.072;11.970;2022-08-21T16:21:46;24.09;58.20
65207;SHT31;58477;48.072;11.970;2022-08-21T16:24:11;24.14;55.57
65207;SHT31;58477;48.072;11.970;2022-08-21T16:26:37;24.34;56.33
65207;SHT31;58477;48.072;11.970;2022-08-21T16:29:03;24.37;54.77